createdAt,value
2018-10-09T00:00:21.806Z,95.90
2018-10-09T00:02:50.568Z,96.00
2018-10-09T00:05:19.513Z,96.60
2018-10-09T00:07:48.636Z,96.70
2018-10-09T00:10:17.597Z,96.70
2018-10-09T00:12:46.692Z,96.80
2018-10-09T00:15:15.919Z,96.40
2018-10-09T00:17:44.879Z,96.40
2018-10-09T00:20:17.804Z,95.90
2018-10-09T00:22:46.809Z,96.00
2018-10-09T00:25:15.866Z,95.70
2018-10-09T00:27:44.970Z,96.10
2018-10-09T00:30:13.951Z,96.10
2018-10-09T00:32:42.935Z,96.50
2018-10-09T00:35:12.039Z,96.40
2018-10-09T00:37:41.126Z,96.50
2018-10-09T00:40:10.227Z,96.60
2018-10-09T00:42:39.320Z,96.60
2018-10-09T00:45:08.627Z,96.80
2018-10-09T00:47:37.888Z,96.80
2018-10-09T00:50:07.241Z,97.10
2018-10-09T00:52:36.328Z,97.00
2018-10-09T00:55:05.439Z,96.50
2018-10-09T00:57:34.528Z,96.80
2018-10-09T01:00:03.474Z,97.20
2018-10-09T01:02:32.476Z,97.40
2018-10-09T01:05:01.585Z,97.80
2018-10-09T01:07:30.583Z,98.30
2018-10-09T01:09:59.573Z,98.50
2018-10-09T01:12:28.703Z,98.40
2018-10-09T01:14:57.651Z,98.50
2018-10-09T01:17:26.644Z,98.50
2018-10-09T01:19:55.736Z,98.20
2018-10-09T01:22:24.746Z,98.40
2018-10-09T01:24:53.747Z,98.00
2018-10-09T01:27:22.703Z,97.90
2018-10-09T01:29:51.722Z,98.00
2018-10-09T01:32:20.896Z,98.30
2018-10-09T01:34:50.003Z,97.80
2018-10-09T01:37:18.832Z,98.20
2018-10-09T01:39:47.904Z,97.70
2018-10-09T01:42:16.884Z,98.40
2018-10-09T01:44:45.976Z,98.80
2018-10-09T01:47:15.083Z,98.90
2018-10-09T01:49:44.207Z,98.50
2018-10-09T01:52:13.364Z,98.70
2018-10-09T01:54:42.474Z,98.70
2018-10-09T01:57:11.456Z,98.40
2018-10-09T01:59:40.528Z,98.90
2018-10-09T02:02:09.576Z,98.50
2018-10-09T02:04:38.595Z,99.10
2018-10-09T02:07:07.737Z,99.10
2018-10-09T02:09:36.815Z,98.90
2018-10-09T02:12:06.022Z,98.90
2018-10-09T02:14:35.167Z,99.20
2018-10-09T02:17:04.348Z,99.10
2018-10-09T02:19:33.108Z,99.20
2018-10-09T02:22:01.945Z,99.20
2018-10-09T02:24:30.821Z,99.70
2018-10-09T02:26:59.809Z,98.90
2018-10-09T02:29:28.752Z,99.20
2018-10-09T02:31:57.856Z,99.30
2018-10-09T02:34:26.588Z,99.90
2018-10-09T02:36:55.522Z,99.90
2018-10-09T02:39:24.556Z,99.90
2018-10-09T02:41:53.638Z,99.90
2018-10-09T02:44:22.719Z,99.30
2018-10-09T02:46:51.819Z,99.90
2018-10-09T02:49:21.026Z,99.90
2018-10-09T02:51:50.037Z,99.40
2018-10-09T02:54:19.096Z,99.90
2018-10-09T02:56:48.287Z,99.80
2018-10-09T02:59:17.285Z,99.90
2018-10-09T03:01:46.252Z,99.90
2018-10-09T03:04:15.423Z,99.90
2018-10-09T03:06:44.665Z,99.90
2018-10-09T03:09:13.777Z,99.90
2018-10-09T03:11:42.866Z,99.90
2018-10-09T03:14:12.056Z,99.40
2018-10-09T03:16:40.875Z,99.90
2018-10-09T03:19:09.949Z,99.90
2018-10-09T03:21:39.044Z,99.90
2018-10-09T03:24:08.332Z,99.90
2018-10-09T03:26:37.431Z,99.90
2018-10-09T03:29:06.863Z,99.90
2018-10-09T03:31:35.935Z,99.90
2018-10-09T03:34:04.801Z,99.90
2018-10-09T03:36:33.906Z,99.90
2018-10-09T03:39:02.736Z,99.90
2018-10-09T03:41:31.837Z,99.90
2018-10-09T03:44:00.979Z,99.90
2018-10-09T03:46:30.232Z,99.90
2018-10-09T03:48:59.084Z,99.90
2018-10-09T03:51:27.891Z,99.90
2018-10-09T03:53:56.997Z,99.90
2018-10-09T03:56:26.063Z,99.90
2018-10-09T03:58:54.875Z,99.90
2018-10-09T04:01:23.656Z,99.90
2018-10-09T04:03:52.440Z,99.90
2018-10-09T04:06:21.311Z,99.90
2018-10-09T04:08:50.120Z,99.90
2018-10-09T04:11:19.017Z,99.90
2018-10-09T04:13:47.801Z,99.90
2018-10-09T04:16:16.546Z,99.90
2018-10-09T04:18:45.371Z,99.90
2018-10-09T04:21:15.039Z,99.90
2018-10-09T04:23:43.816Z,99.90
2018-10-09T04:26:12.611Z,99.90
2018-10-09T04:28:41.387Z,99.90
2018-10-09T04:31:10.216Z,99.90
2018-10-09T04:33:38.989Z,99.90
2018-10-09T04:36:08.089Z,99.90
2018-10-09T04:38:37.172Z,99.90
2018-10-09T04:41:06.555Z,99.90
2018-10-09T04:43:36.089Z,99.90
2018-10-09T04:46:05.188Z,99.90
2018-10-09T04:48:34.276Z,99.90
2018-10-09T04:51:03.378Z,99.90
2018-10-09T04:53:32.467Z,99.90
2018-10-09T04:56:01.610Z,99.90
2018-10-09T04:58:30.656Z,99.90
2018-10-09T05:00:59.507Z,99.90
2018-10-09T05:03:28.559Z,99.90
2018-10-09T05:05:57.636Z,99.90
2018-10-09T05:08:26.640Z,99.90
2018-10-09T05:10:55.717Z,99.90
2018-10-09T05:13:24.817Z,99.90
2018-10-09T05:15:53.922Z,99.90
2018-10-09T05:18:22.691Z,99.90
2018-10-09T05:20:51.953Z,99.90
2018-10-09T05:23:20.809Z,99.90
2018-10-09T05:25:49.798Z,99.90
2018-10-09T05:28:18.900Z,99.90
2018-10-09T05:30:47.996Z,99.90
2018-10-09T05:33:17.011Z,99.90
2018-10-09T05:35:46.059Z,99.90
2018-10-09T05:38:15.151Z,99.90
2018-10-09T05:40:44.261Z,99.90
2018-10-09T05:43:13.565Z,99.90
2018-10-09T05:45:42.685Z,99.90
2018-10-09T05:48:11.731Z,99.90
2018-10-09T05:50:40.727Z,99.90
2018-10-09T05:53:09.920Z,99.90
2018-10-09T05:55:39.033Z,99.90
2018-10-09T05:58:08.372Z,99.90
2018-10-09T06:00:37.212Z,99.90
2018-10-09T06:03:06.573Z,99.90
2018-10-09T06:05:35.588Z,99.90
2018-10-09T06:08:04.570Z,99.90
2018-10-09T06:10:33.720Z,99.90
2018-10-09T06:13:02.877Z,99.90
2018-10-09T06:15:32.000Z,99.90
2018-10-09T06:18:01.076Z,99.90
2018-10-09T06:20:30.176Z,99.90
2018-10-09T06:22:59.124Z,99.90
2018-10-09T06:25:28.240Z,99.90
2018-10-09T06:27:57.477Z,99.90
2018-10-09T06:30:26.765Z,99.90
2018-10-09T06:32:55.847Z,99.90
2018-10-09T06:35:24.969Z,99.90
2018-10-09T06:37:54.040Z,99.90
2018-10-09T06:40:23.381Z,99.90
2018-10-09T06:42:52.506Z,99.90
2018-10-09T06:45:21.544Z,99.90
2018-10-09T06:47:50.712Z,99.90
2018-10-09T06:50:19.836Z,99.90
2018-10-09T06:52:49.120Z,99.90
2018-10-09T06:55:18.220Z,99.90
2018-10-09T06:57:47.311Z,99.90
2018-10-09T07:00:16.632Z,99.90
2018-10-09T07:02:45.704Z,99.90
2018-10-09T07:05:14.883Z,99.90
2018-10-09T07:07:44.114Z,99.90
2018-10-09T07:10:13.210Z,99.90
2018-10-09T07:12:42.345Z,99.90
2018-10-09T07:15:11.597Z,99.90
2018-10-09T07:17:40.687Z,99.90
2018-10-09T07:20:09.776Z,99.90
2018-10-09T07:22:38.978Z,99.90
2018-10-09T07:25:08.330Z,99.90
2018-10-09T07:27:37.460Z,99.90
2018-10-09T07:30:07.651Z,99.90
2018-10-09T07:32:36.645Z,99.90
2018-10-09T07:35:06.200Z,99.90
2018-10-09T07:37:35.359Z,99.90
2018-10-09T07:40:04.488Z,99.90
2018-10-09T07:42:33.676Z,99.90
2018-10-09T07:45:02.767Z,99.90
2018-10-09T07:47:31.875Z,99.90
2018-10-09T07:50:00.976Z,99.90
2018-10-09T07:52:30.172Z,99.90
2018-10-09T07:54:59.265Z,99.90
2018-10-09T07:57:28.348Z,99.90
2018-10-09T07:59:57.532Z,99.90
2018-10-09T08:02:26.672Z,99.90
2018-10-09T08:04:55.915Z,99.90
2018-10-09T08:07:25.042Z,99.90
2018-10-09T08:09:54.112Z,99.90
2018-10-09T08:12:23.112Z,99.90
2018-10-09T08:14:51.969Z,99.90
2018-10-09T08:17:21.113Z,99.90
2018-10-09T08:19:50.191Z,99.90
2018-10-09T08:22:19.311Z,99.90
2018-10-09T08:24:48.712Z,99.90
2018-10-09T08:27:17.524Z,99.90
2018-10-09T08:29:46.582Z,99.90
2018-10-09T08:32:15.627Z,99.90
2018-10-09T08:34:44.677Z,99.90
2018-10-09T08:37:14.018Z,99.90
2018-10-09T08:39:43.128Z,99.90
2018-10-09T08:42:12.357Z,99.90
2018-10-09T08:44:41.445Z,99.90
2018-10-09T08:47:10.555Z,99.90
2018-10-09T08:49:39.646Z,99.90
2018-10-09T08:52:08.862Z,99.90
2018-10-09T08:54:38.054Z,99.90
2018-10-09T08:57:07.102Z,99.90
2018-10-09T08:59:36.151Z,99.90
2018-10-09T09:02:05.111Z,99.90
2018-10-09T09:04:34.248Z,99.90
2018-10-09T09:07:03.065Z,99.90
2018-10-09T09:09:31.846Z,99.80
2018-10-09T09:12:00.880Z,99.90
2018-10-09T09:14:29.880Z,99.90
2018-10-09T09:16:58.931Z,99.90
2018-10-09T09:19:27.757Z,99.30
2018-10-09T09:21:56.931Z,99.60
2018-10-09T09:24:26.048Z,99.70
2018-10-09T09:26:55.069Z,98.70
2018-10-09T09:29:24.086Z,99.00
2018-10-09T09:31:52.913Z,98.40
2018-10-09T09:34:22.217Z,97.90
2018-10-09T09:36:51.299Z,98.10
2018-10-09T09:39:20.091Z,97.70
2018-10-09T09:41:49.224Z,98.30
2018-10-09T09:44:18.322Z,97.80
2018-10-09T09:46:47.388Z,97.70
2018-10-09T09:49:16.111Z,97.40
2018-10-09T09:51:45.063Z,96.70
2018-10-09T09:54:14.131Z,95.80
2018-10-09T09:56:43.165Z,96.10
2018-10-09T09:59:12.423Z,95.90
2018-10-09T10:01:43.352Z,95.60
2018-10-09T10:04:13.259Z,95.10
2018-10-09T10:06:42.862Z,95.00
2018-10-09T10:09:12.320Z,93.70
2018-10-09T10:11:41.032Z,93.90
2018-10-09T10:14:10.308Z,94.40
2018-10-09T10:16:39.304Z,94.70
2018-10-09T10:19:08.405Z,94.50
2018-10-09T10:21:37.508Z,93.80
2018-10-09T10:24:06.600Z,94.10
2018-10-09T10:26:35.676Z,93.10
2018-10-09T10:29:04.888Z,93.30
2018-10-09T10:31:33.983Z,92.90
2018-10-09T10:34:03.181Z,92.80
2018-10-09T10:36:32.296Z,93.30
2018-10-09T10:39:01.365Z,91.70
2018-10-09T10:41:30.529Z,91.10
2018-10-09T10:43:59.690Z,90.20
2018-10-09T10:46:32.602Z,90.70
2018-10-09T10:49:04.876Z,90.20
2018-10-09T10:51:33.928Z,88.40
2018-10-09T10:54:03.113Z,88.90
2018-10-09T10:56:32.196Z,85.50
2018-10-09T10:59:01.146Z,84.10
2018-10-09T11:01:30.331Z,85.30
2018-10-09T11:03:59.388Z,82.60
2018-10-09T11:06:28.665Z,83.60
2018-10-09T11:08:57.717Z,81.90
2018-10-09T11:11:26.709Z,81.40
2018-10-09T11:13:55.894Z,80.10
2018-10-09T11:16:25.039Z,79.90
2018-10-09T11:18:54.113Z,79.60
2018-10-09T11:21:23.429Z,77.20
2018-10-09T11:23:52.450Z,78.30
2018-10-09T11:26:21.560Z,77.10
2018-10-09T11:28:50.610Z,75.40
2018-10-09T11:31:19.818Z,75.20
2018-10-09T11:33:48.888Z,74.80
2018-10-09T11:36:18.104Z,74.40
2018-10-09T11:38:47.237Z,76.00
2018-10-09T11:41:16.297Z,75.30
2018-10-09T11:43:45.386Z,75.30
2018-10-09T11:46:14.496Z,74.30
2018-10-09T11:48:43.582Z,74.90
2018-10-09T11:51:12.708Z,74.00
2018-10-09T11:53:41.765Z,73.90
2018-10-09T11:56:10.869Z,73.10
2018-10-09T11:58:40.043Z,72.70
2018-10-09T12:01:10.037Z,73.40
2018-10-09T12:03:39.188Z,72.40
2018-10-09T12:06:08.265Z,72.20
2018-10-09T12:08:37.379Z,70.70
2018-10-09T12:11:06.669Z,69.60
2018-10-09T12:13:35.767Z,70.60
2018-10-09T12:16:05.502Z,68.30
2018-10-09T12:18:34.668Z,67.70
2018-10-09T12:21:03.458Z,66.40
2018-10-09T12:23:32.524Z,67.80
2018-10-09T12:26:01.386Z,68.00
2018-10-09T12:28:30.592Z,67.40
2018-10-09T12:30:59.624Z,66.50
2018-10-09T12:33:28.631Z,65.60
2018-10-09T12:35:57.604Z,64.80
2018-10-09T12:38:26.776Z,64.70
2018-10-09T12:40:55.829Z,65.00
2018-10-09T12:43:24.615Z,62.50
2018-10-09T12:45:53.675Z,64.60
2018-10-09T12:48:22.876Z,61.20
2018-10-09T12:50:51.863Z,61.50
2018-10-09T12:53:21.129Z,61.80
2018-10-09T12:55:50.368Z,62.20
2018-10-09T12:58:19.435Z,61.20
2018-10-09T13:00:48.448Z,60.80
2018-10-09T13:03:17.455Z,60.80
2018-10-09T13:05:46.483Z,60.40
2018-10-09T13:08:15.541Z,59.70
2018-10-09T13:10:44.632Z,59.40
2018-10-09T13:13:13.710Z,59.50
2018-10-09T13:15:42.835Z,59.60
2018-10-09T13:18:12.108Z,60.30
2018-10-09T13:20:41.383Z,59.40
2018-10-09T13:23:10.515Z,59.50
2018-10-09T13:25:39.719Z,59.20
2018-10-09T13:28:08.558Z,60.50
2018-10-09T13:30:37.565Z,59.40
2018-10-09T13:33:06.807Z,58.80
2018-10-09T13:35:36.783Z,59.30
2018-10-09T13:38:05.935Z,58.50
2018-10-09T13:40:35.123Z,58.30
2018-10-09T13:43:04.248Z,57.80
2018-10-09T13:45:33.391Z,57.90
2018-10-09T13:48:02.314Z,57.50
2018-10-09T13:50:31.758Z,57.60
2018-10-09T13:53:00.878Z,58.20
2018-10-09T13:55:30.006Z,57.20
2018-10-09T13:57:59.260Z,57.10
2018-10-09T14:00:28.428Z,57.40
2018-10-09T14:02:57.715Z,57.50
2018-10-09T14:05:26.877Z,57.50
2018-10-09T14:07:56.357Z,57.10
2018-10-09T14:10:25.672Z,57.50
2018-10-09T14:12:54.879Z,57.10
2018-10-09T14:15:24.006Z,57.90
2018-10-09T14:17:53.288Z,57.60
2018-10-09T14:20:22.480Z,57.20
2018-10-09T14:22:51.653Z,57.60
2018-10-09T14:25:20.856Z,56.30
2018-10-09T14:27:49.628Z,56.50
2018-10-09T14:30:18.588Z,55.10
2018-10-09T14:32:47.455Z,56.50
2018-10-09T14:35:16.617Z,56.30
2018-10-09T14:37:45.644Z,55.70
2018-10-09T14:40:14.791Z,56.10
2018-10-09T14:42:43.888Z,55.20
2018-10-09T14:45:13.055Z,55.50
2018-10-09T14:47:42.299Z,55.20
2018-10-09T14:50:11.510Z,54.60
2018-10-09T14:52:40.573Z,54.60
2018-10-09T14:55:09.690Z,54.90
2018-10-09T14:57:38.779Z,55.70
2018-10-09T15:00:09.631Z,55.10
2018-10-09T15:02:38.907Z,55.50
2018-10-09T15:05:08.194Z,55.20
2018-10-09T15:07:37.029Z,54.50
2018-10-09T15:10:06.320Z,54.60
2018-10-09T15:12:35.760Z,55.10
2018-10-09T15:15:05.072Z,55.10
2018-10-09T15:17:34.379Z,55.50
2018-10-09T15:20:03.612Z,55.80
2018-10-09T15:22:32.418Z,56.10
2018-10-09T15:25:01.556Z,56.20
2018-10-09T15:27:30.740Z,56.50
2018-10-09T15:29:59.877Z,56.40
2018-10-09T15:32:28.753Z,56.80
2018-10-09T15:34:57.652Z,56.90
2018-10-09T15:37:26.447Z,56.60
2018-10-09T15:39:55.295Z,57.00
2018-10-09T15:42:24.118Z,57.20
2018-10-09T15:44:52.988Z,56.90
2018-10-09T15:47:22.210Z,56.90
2018-10-09T15:49:51.296Z,57.20
2018-10-09T15:52:20.465Z,57.10
2018-10-09T15:54:49.488Z,57.20
2018-10-09T15:57:18.491Z,57.20
2018-10-09T15:59:47.507Z,57.20
2018-10-09T16:02:16.568Z,57.00
2018-10-09T16:04:45.491Z,57.10
2018-10-09T16:07:14.355Z,57.60
2018-10-09T16:09:43.217Z,58.10
2018-10-09T16:12:12.027Z,58.00
2018-10-09T16:14:40.899Z,58.20
2018-10-09T16:17:09.764Z,58.20
2018-10-09T16:19:38.979Z,58.60
2018-10-09T16:22:08.006Z,58.30
2018-10-09T16:24:37.114Z,58.20
2018-10-09T16:27:06.290Z,58.40
2018-10-09T16:29:35.416Z,58.30
2018-10-09T16:32:04.464Z,58.70
2018-10-09T16:34:33.560Z,58.70
2018-10-09T16:37:02.684Z,58.70
2018-10-09T16:39:31.674Z,59.00
2018-10-09T16:42:00.908Z,58.90
2018-10-09T16:44:29.734Z,59.20
2018-10-09T16:46:58.832Z,59.30
2018-10-09T16:49:27.933Z,59.30
2018-10-09T16:51:56.716Z,59.20
2018-10-09T16:54:25.756Z,59.70
2018-10-09T16:56:54.878Z,59.50
2018-10-09T16:59:23.929Z,59.80
2018-10-09T17:01:52.917Z,59.80
2018-10-09T17:04:21.998Z,59.80
2018-10-09T17:06:51.191Z,60.00
2018-10-09T17:09:20.178Z,60.10
2018-10-09T17:11:49.161Z,60.40
2018-10-09T17:14:17.907Z,60.50
2018-10-09T17:16:46.692Z,60.50
2018-10-09T17:19:15.529Z,61.00
2018-10-09T17:21:44.405Z,60.60
2018-10-09T17:24:13.203Z,60.80
2018-10-09T17:26:42.002Z,61.10
2018-10-09T17:29:10.859Z,61.20
2018-10-09T17:31:39.671Z,61.30
2018-10-09T17:34:08.468Z,61.50
2018-10-09T17:36:37.575Z,61.70
2018-10-09T17:39:09.413Z,61.60
2018-10-09T17:41:38.930Z,61.70
2018-10-09T17:44:07.986Z,62.00
2018-10-09T17:46:37.566Z,61.40
2018-10-09T17:49:06.379Z,61.00
2018-10-09T17:51:35.565Z,62.10
2018-10-09T17:54:04.597Z,63.00
2018-10-09T17:56:33.648Z,62.80
2018-10-09T17:59:02.714Z,63.60
2018-10-09T18:01:31.601Z,63.50
2018-10-09T18:04:00.413Z,64.30
2018-10-09T18:06:29.225Z,63.20
2018-10-09T18:08:58.148Z,62.90
2018-10-09T18:11:26.892Z,63.70
2018-10-09T18:13:55.711Z,62.90
2018-10-09T18:16:24.549Z,63.00
2018-10-09T18:18:53.333Z,64.30
2018-10-09T18:21:22.237Z,65.10
2018-10-09T18:23:51.016Z,66.50
2018-10-09T18:26:19.811Z,66.80
2018-10-09T18:28:48.974Z,65.20
2018-10-09T18:31:17.815Z,64.50
2018-10-09T18:33:47.070Z,65.10
2018-10-09T18:36:16.186Z,65.60
2018-10-09T18:38:45.146Z,65.80
2018-10-09T18:41:14.088Z,65.50
2018-10-09T18:43:43.019Z,66.40
2018-10-09T18:46:12.159Z,65.40
2018-10-09T18:48:41.124Z,65.60
2018-10-09T18:51:11.232Z,65.30
2018-10-09T18:53:40.346Z,65.20
2018-10-09T18:56:09.141Z,65.50
2018-10-09T18:58:38.287Z,64.80
2018-10-09T19:01:07.393Z,64.10
2018-10-09T19:03:36.488Z,64.30
2018-10-09T19:06:05.578Z,64.70
2018-10-09T19:08:34.691Z,64.70
2018-10-09T19:11:03.748Z,64.70
2018-10-09T19:13:32.790Z,64.90
2018-10-09T19:16:01.624Z,64.80
2018-10-09T19:18:30.412Z,64.80
2018-10-09T19:20:59.231Z,65.10
2018-10-09T19:23:28.094Z,65.00
2018-10-09T19:25:56.924Z,64.20
2018-10-09T19:28:25.711Z,65.40
2018-10-09T19:30:54.498Z,65.50
2018-10-09T19:33:23.293Z,65.70
2018-10-09T19:35:52.110Z,66.70
2018-10-09T19:38:21.021Z,66.50
2018-10-09T19:40:49.838Z,66.30
2018-10-09T19:43:18.674Z,66.00
2018-10-09T19:45:47.471Z,65.80
2018-10-09T19:48:16.324Z,65.90
2018-10-09T19:50:45.466Z,66.00
2018-10-09T19:53:14.263Z,67.10
2018-10-09T19:55:43.042Z,66.40
2018-10-09T19:58:11.836Z,66.60
2018-10-09T20:00:40.992Z,66.40
2018-10-09T20:03:10.077Z,66.40
2018-10-09T20:05:39.267Z,66.40
2018-10-09T20:08:08.350Z,66.70
2018-10-09T20:10:37.224Z,67.10
2018-10-09T20:13:06.223Z,67.10
2018-10-09T20:15:35.356Z,67.00
2018-10-09T20:18:04.626Z,67.10
2018-10-09T20:20:33.741Z,67.40
2018-10-09T20:23:02.596Z,67.70
2018-10-09T20:25:31.840Z,67.80
2018-10-09T20:28:00.872Z,67.80
2018-10-09T20:30:30.111Z,68.30
2018-10-09T20:32:59.215Z,68.60
2018-10-09T20:35:28.057Z,68.80
2018-10-09T20:37:57.207Z,68.40
2018-10-09T20:40:26.297Z,69.00
2018-10-09T20:42:55.385Z,69.00
2018-10-09T20:45:24.548Z,69.20
2018-10-09T20:47:53.685Z,69.40
2018-10-09T20:50:22.537Z,69.20
2018-10-09T20:52:51.311Z,69.30
2018-10-09T20:55:20.114Z,69.80
2018-10-09T20:57:48.911Z,70.20
2018-10-09T21:00:18.143Z,70.30
2018-10-09T21:02:47.244Z,69.50
2018-10-09T21:05:16.495Z,69.50
2018-10-09T21:07:45.718Z,70.60
2018-10-09T21:10:14.792Z,70.30
2018-10-09T21:12:44.053Z,70.10
2018-10-09T21:15:13.217Z,70.50
2018-10-09T21:17:42.333Z,71.10
2018-10-09T21:20:11.387Z,71.10
2018-10-09T21:22:40.498Z,71.70
2018-10-09T21:25:09.572Z,72.20
2018-10-09T21:27:38.716Z,73.10
2018-10-09T21:30:07.539Z,73.30
2018-10-09T21:32:36.748Z,71.80
2018-10-09T21:35:05.948Z,71.30
2018-10-09T21:37:35.050Z,71.30
2018-10-09T21:40:04.226Z,71.10
2018-10-09T21:42:32.964Z,70.90
2018-10-09T21:45:01.932Z,70.80
2018-10-09T21:47:31.123Z,70.90
2018-10-09T21:50:00.239Z,71.40
2018-10-09T21:52:29.256Z,71.50
2018-10-09T21:54:58.503Z,71.60
2018-10-09T21:57:27.612Z,71.50
2018-10-09T21:59:56.496Z,71.50
2018-10-09T22:02:25.288Z,71.60
2018-10-09T22:04:54.296Z,71.50
2018-10-09T22:07:23.253Z,72.50
2018-10-09T22:09:52.363Z,72.50
2018-10-09T22:12:21.111Z,72.40
2018-10-09T22:14:50.343Z,72.40
2018-10-09T22:17:19.452Z,72.90
2018-10-09T22:19:48.645Z,72.80
2018-10-09T22:22:17.760Z,72.90
2018-10-09T22:24:46.836Z,72.70
2018-10-09T22:27:15.919Z,72.50
2018-10-09T22:29:45.003Z,72.40
2018-10-09T22:32:13.777Z,73.40
2018-10-09T22:34:42.840Z,73.80
2018-10-09T22:37:12.078Z,74.30
2018-10-09T22:39:41.278Z,74.40
2018-10-09T22:42:10.364Z,74.60
2018-10-09T22:44:39.385Z,74.70
2018-10-09T22:47:08.508Z,74.80
2018-10-09T22:49:37.467Z,75.50
2018-10-09T22:52:06.456Z,75.80
2018-10-09T22:54:35.457Z,75.80
2018-10-09T22:57:04.457Z,74.60
2018-10-09T22:59:33.472Z,76.10
2018-10-09T23:02:02.411Z,76.60
2018-10-09T23:04:31.519Z,77.10
2018-10-09T23:07:00.622Z,77.60
2018-10-09T23:09:29.619Z,78.00
2018-10-09T23:11:58.840Z,77.40
2018-10-09T23:14:28.002Z,77.00
2018-10-09T23:16:57.100Z,77.30
2018-10-09T23:19:26.276Z,77.70
2018-10-09T23:21:55.384Z,77.00
2018-10-09T23:24:24.509Z,77.30
2018-10-09T23:26:53.681Z,78.50
2018-10-09T23:29:22.779Z,78.70
2018-10-09T23:31:51.881Z,78.00
2018-10-09T23:34:20.961Z,77.40
2018-10-09T23:36:50.100Z,78.20
2018-10-09T23:39:19.168Z,78.30
2018-10-09T23:41:47.955Z,79.50
2018-10-09T23:44:16.773Z,79.10
2018-10-09T23:46:45.840Z,78.70
2018-10-09T23:49:14.952Z,78.80
2018-10-09T23:51:44.128Z,79.00
2018-10-09T23:54:13.194Z,78.70
2018-10-09T23:56:42.281Z,78.30
2018-10-09T23:59:11.502Z,78.50
